Time;durP1;ratioP1;P1;durP2;ratioP2;P2;SDS_P1;SDS_P2;PMS_P1;PMS_P2;Temp;Humidity;BMP_temperature;BMP_pressure;BME280_temperature;BME280_humidity;BME280_pressure;Samples;Min_cycle;Max_cycle;Signal;HPM_P1;HPM_P2
2023/07/01 00:01:47;;;;;;;0.70;0.50;;;19.30;99.90;;;;;;5136667;27;20425;-55
2023/07/01 00:04:14;;;;;;;0.80;0.40;;;19.20;1.00;;;;;;5137023;27;20437;-55
2023/07/01 00:06:43;;;;;;;1.70;0.50;;;19.20;1.00;;;;;;5136746;27;20733;-57
2023/07/01 00:09:10;;;;;;;0.90;0.50;;;19.30;99.90;;;;;;5136029;27;20951;-57
2023/07/01 00:11:38;;;;;;;0.80;0.50;;;19.40;99.90;;;;;;5136548;27;20422;-57
2023/07/01 00:14:05;;;;;;;0.80;0.50;;;19.40;99.90;;;;;;5136107;27;20433;-57
2023/07/01 00:16:32;;;;;;;0.60;0.50;;;19.40;99.90;;;;;;5136722;27;20730;-58
2023/07/01 00:18:59;;;;;;;1.00;0.50;;;19.20;99.90;;;;;;5135677;27;20441;-55
2023/07/01 00:21:26;;;;;;;0.80;0.50;;;19.10;99.90;;;;;;5137366;27;20417;-55
2023/07/01 00:23:56;;;;;;;0.63;0.40;;;19.00;99.90;;;;;;5137732;27;20714;-57
2023/07/01 00:26:23;;;;;;;0.88;0.50;;;19.10;99.90;;;;;;5135819;27;20426;-56
2023/07/01 00:28:50;;;;;;;1.45;0.50;;;19.00;60.60;;;;;;5135858;27;20435;-57
2023/07/01 00:31:17;;;;;;;1.80;0.50;;;19.00;1.00;;;;;;5135392;27;20430;-57
2023/07/01 00:33:44;;;;;;;1.03;0.43;;;19.00;1.00;;;;;;5135943;27;20422;-58
2023/07/01 00:36:11;;;;;;;1.00;0.50;;;18.90;1.00;;;;;;5136411;27;20422;-58
2023/07/01 00:38:38;;;;;;;0.80;0.50;;;18.90;57.30;;;;;;5136426;27;20471;-57
2023/07/01 00:41:06;;;;;;;0.80;0.50;;;18.90;99.90;;;;;;5136497;27;20483;-57
2023/07/01 00:43:33;;;;;;;0.80;0.60;;;19.00;1.00;;;;;;5134913;27;20486;-56
2023/07/01 00:46:01;;;;;;;0.60;0.50;;;18.90;99.90;;;;;;5136139;27;20497;-57
2023/07/01 00:48:29;;;;;;;0.80;0.50;;;18.80;1.00;;;;;;5135319;27;20582;-56
2023/07/01 00:50:56;;;;;;;0.70;0.50;;;18.70;99.90;;;;;;5136168;27;20904;-56
2023/07/01 00:53:24;;;;;;;0.60;0.40;;;18.80;99.90;;;;;;5135966;27;20415;-57
2023/07/01 00:55:52;;;;;;;0.90;0.50;;;18.80;1.00;;;;;;5134904;27;20917;-57
2023/07/01 00:58:21;;;;;;;0.80;0.60;;;18.80;99.90;;;;;;5135327;27;20479;-58
2023/07/01 01:00:48;;;;;;;1.40;0.50;;;18.80;1.00;;;;;;5136204;27;20914;-57
2023/07/01 01:03:22;;;;;;;1.00;0.50;;;18.70;1.00;;;;;;5136651;27;20499;-57
2023/07/01 01:05:56;;;;;;;0.80;0.50;;;18.70;99.90;;;;;;5136218;27;20425;-59
2023/07/01 01:08:29;;;;;;;0.73;0.40;;;18.80;1.00;;;;;;5136328;27;20848;-57
2023/07/01 01:11:00;;;;;;;1.00;0.50;;;18.70;1.00;;;;;;5135851;27;20417;-58
2023/07/01 01:13:29;;;;;;;1.00;0.60;;;18.80;1.00;;;;;;5135093;27;20468;-58
2023/07/01 01:15:59;;;;;;;1.90;0.55;;;18.80;35.70;;;;;;5135706;27;20517;-56
2023/07/01 01:18:30;;;;;;;1.00;0.40;;;18.80;99.90;;;;;;5134427;27;20492;-56
2023/07/01 01:20:58;;;;;;;0.60;0.40;;;18.60;1.00;;;;;;5134893;27;20417;-57
2023/07/01 01:23:29;;;;;;;0.70;0.40;;;18.60;1.00;;;;;;5135512;27;20437;-59
2023/07/01 01:26:06;;;;;;;0.82;0.50;;;18.50;99.90;;;;;;5136020;27;20780;-57
2023/07/01 01:28:35;;;;;;;0.95;0.50;;;18.50;99.90;;;;;;5135896;27;20785;-58
2023/07/01 01:31:02;;;;;;;2.03;0.60;;;18.40;1.00;;;;;;5135055;27;20426;-58
2023/07/01 01:33:29;;;;;;;0.70;0.50;;;18.30;1.00;;;;;;5137062;27;20850;-56
2023/07/01 01:36:02;;;;;;;1.10;0.63;;;18.20;1.00;;;;;;5135784;27;20414;-56
2023/07/01 01:38:32;;;;;;;0.70;0.50;;;18.00;1.00;;;;;;5136182;27;20737;-58
2023/07/01 01:41:06;;;;;;;1.25;0.50;;;18.10;1.00;;;;;;5135065;27;20491;-57
2023/07/01 01:43:41;;;;;;;1.00;0.60;;;18.00;1.00;;;;;;5134338;27;20499;-57
2023/07/01 01:46:09;;;;;;;0.98;0.60;;;18.00;1.00;;;;;;5134040;27;20725;-57
2023/07/01 01:48:38;;;;;;;1.30;0.60;;;18.00;1.00;;;;;;5134126;27;20790;-57
2023/07/01 01:51:06;;;;;;;0.70;0.40;;;17.90;1.00;;;;;;5135068;27;20887;-57
2023/07/01 01:53:35;;;;;;;1.10;0.60;;;17.90;1.00;;;;;;5136365;27;20456;-58
2023/07/01 01:56:03;;;;;;;0.90;0.60;;;17.80;1.00;;;;;;5136312;27;20423;-56
2023/07/01 01:58:30;;;;;;;0.90;0.50;;;17.80;1.00;;;;;;5135963;27;20479;-56
2023/07/01 02:00:59;;;;;;;0.85;0.50;;;17.80;1.00;;;;;;5135439;27;20846;-57
2023/07/01 02:03:26;;;;;;;0.98;0.60;;;17.90;1.00;;;;;;5135862;27;20479;-56
2023/07/01 02:05:53;;;;;;;1.05;0.60;;;17.90;1.00;;;;;;5136521;27;20479;-57
2023/07/01 02:08:20;;;;;;;0.80;0.50;;;17.80;1.00;;;;;;5136500;27;20426;-58
2023/07/01 02:10:47;;;;;;;1.50;0.65;;;17.80;1.00;;;;;;5135661;27;20475;-56
2023/07/01 02:13:14;;;;;;;1.02;0.60;;;17.80;1.00;;;;;;5135142;27;20419;-56
2023/07/01 02:15:41;;;;;;;1.10;0.70;;;17.80;1.00;;;;;;5136329;27;20426;-57
2023/07/01 02:18:09;;;;;;;0.80;0.50;;;17.70;1.00;;;;;;5136668;27;20471;-57
2023/07/01 02:20:37;;;;;;;1.00;0.52;;;17.80;1.00;;;;;;5136305;27;20478;-57
2023/07/01 02:23:04;;;;;;;1.50;0.60;;;17.80;1.00;;;;;;5135122;27;20423;-57
2023/07/01 02:25:31;;;;;;;0.88;0.60;;;17.70;1.00;;;;;;5135314;27;20479;-56
2023/07/01 02:27:58;;;;;;;0.77;0.50;;;17.80;1.00;;;;;;5135132;27;20426;-58
2023/07/01 02:30:25;;;;;;;2.78;0.70;;;17.80;1.00;;;;;;5135401;27;20467;-59
2023/07/01 02:32:52;;;;;;;0.80;0.50;;;17.80;1.00;;;;;;5135678;27;20422;-59
2023/07/01 02:35:20;;;;;;;0.90;0.55;;;17.80;1.00;;;;;;5132459;27;20877;-57
2023/07/01 02:37:47;;;;;;;1.10;0.50;;;17.80;1.00;;;;;;5134472;28;20845;-58
2023/07/01 02:40:14;;;;;;;0.90;0.60;;;18.00;1.00;;;;;;5135020;28;20915;-54
2023/07/01 02:42:41;;;;;;;1.10;0.60;;;18.00;1.00;;;;;;5137230;27;20432;-57
2023/07/01 02:45:09;;;;;;;0.90;0.50;;;18.10;1.00;;;;;;5139257;27;20435;-55
2023/07/01 02:47:36;;;;;;;2.40;0.60;;;18.20;1.00;;;;;;5138522;27;20866;-57
2023/07/01 02:50:04;;;;;;;0.80;0.50;;;18.10;1.00;;;;;;5139692;27;20734;-56
2023/07/01 02:52:32;;;;;;;1.00;0.60;;;18.20;1.00;;;;;;5139374;27;20434;-57
2023/07/01 02:54:59;;;;;;;2.60;0.90;;;18.10;1.00;;;;;;5139069;27;20422;-57
2023/07/01 02:57:26;;;;;;;0.82;0.50;;;17.90;1.00;;;;;;5139043;27;20418;-56
2023/07/01 02:59:53;;;;;;;1.20;0.80;;;17.70;1.00;;;;;;5139029;27;20421;-56
2023/07/01 03:02:20;;;;;;;1.90;0.57;;;17.70;1.00;;;;;;5139370;27;20903;-57
2023/07/01 03:04:47;;;;;;;1.00;0.60;;;17.60;1.00;;;;;;5138982;27;20838;-57
2023/07/01 03:07:14;;;;;;;2.28;0.93;;;17.60;1.00;;;;;;5139835;27;20471;-56
2023/07/01 03:09:43;;;;;;;1.10;0.67;;;17.70;1.00;;;;;;5139382;27;20918;-57
2023/07/01 03:12:10;;;;;;;0.90;0.60;;;17.60;1.00;;;;;;5139686;27;20418;-57
2023/07/01 03:14:37;;;;;;;0.70;0.50;;;17.60;1.00;;;;;;5139538;27;20418;-58
2023/07/01 03:17:05;;;;;;;1.40;0.50;;;17.50;1.00;;;;;;5139444;27;20921;-56
2023/07/01 03:19:31;;;;;;;1.40;0.60;;;17.60;1.00;;;;;;5140067;27;20495;-62
2023/07/01 03:21:58;;;;;;;0.80;0.50;;;17.60;1.00;;;;;;5139806;27;20422;-59
2023/07/01 03:24:33;;;;;;;0.80;0.50;;;17.60;1.00;;;;;;5138540;27;20479;-57
2023/07/01 03:27:02;;;;;;;0.90;0.50;;;17.70;1.00;;;;;;5138924;27;20414;-56
2023/07/01 03:29:29;;;;;;;0.90;0.60;;;17.60;1.00;;;;;;5139192;27;20418;-59
2023/07/01 03:31:56;;;;;;;1.20;0.50;;;17.60;1.00;;;;;;5139974;27;20424;-59
2023/07/01 03:34:24;;;;;;;0.93;0.50;;;17.60;1.00;;;;;;5139253;27;20775;-58
2023/07/01 03:36:51;;;;;;;0.70;0.50;;;17.60;1.00;;;;;;5139071;27;20512;-58
2023/07/01 03:39:18;;;;;;;1.20;0.60;;;17.60;1.00;;;;;;5138448;27;20474;-59
2023/07/01 03:41:45;;;;;;;1.10;0.60;;;17.60;1.00;;;;;;5138662;27;20431;-57
2023/07/01 03:44:13;;;;;;;1.17;0.60;;;17.50;1.00;;;;;;5138860;27;20730;-55
2023/07/01 03:46:40;;;;;;;0.85;0.50;;;17.40;1.00;;;;;;5138881;27;20489;-57
2023/07/01 03:49:07;;;;;;;1.00;0.63;;;17.30;1.00;;;;;;5138194;27;20511;-58
2023/07/01 03:51:34;;;;;;;1.13;0.60;;;17.10;1.00;;;;;;5138194;27;20415;-58
2023/07/01 03:54:01;;;;;;;0.70;0.50;;;17.10;1.00;;;;;;5137436;27;20406;-58
2023/07/01 03:56:28;;;;;;;1.20;0.60;;;17.10;1.00;;;;;;5138579;27;20422;-58
2023/07/01 03:58:55;;;;;;;0.82;0.52;;;17.10;1.00;;;;;;5138193;27;20471;-59
2023/07/01 04:01:23;;;;;;;1.10;0.60;;;17.10;1.00;;;;;;5138277;27;20423;-60
2023/07/01 04:03:53;;;;;;;0.90;0.60;;;17.10;1.00;;;;;;5138458;27;20908;-58
2023/07/01 04:06:20;;;;;;;0.93;0.60;;;17.00;1.00;;;;;;5138384;27;20425;-59
2023/07/01 04:08:54;;;;;;;0.90;0.60;;;17.00;1.00;;;;;;5137593;27;20433;-58
2023/07/01 04:11:21;;;;;;;0.80;0.60;;;16.90;1.00;;;;;;5136627;27;20454;-58
2023/07/01 04:13:48;;;;;;;1.30;0.60;;;16.90;1.00;;;;;;5134931;27;20475;-58
2023/07/01 04:16:15;;;;;;;0.90;0.60;;;16.90;1.00;;;;;;5134362;27;20533;-58
2023/07/01 04:18:44;;;;;;;0.90;0.50;;;17.00;1.00;;;;;;5136442;27;20423;-58
2023/07/01 04:21:11;;;;;;;1.10;0.60;;;17.10;1.00;;;;;;5137255;27;20471;-56
2023/07/01 04:23:38;;;;;;;1.00;0.60;;;17.10;1.00;;;;;;5137721;27;20429;-58
2023/07/01 04:26:06;;;;;;;0.80;0.60;;;17.20;1.00;;;;;;5137784;27;20422;-58
2023/07/01 04:28:33;;;;;;;1.00;0.60;;;17.20;1.00;;;;;;5138016;27;20529;-58
2023/07/01 04:31:00;;;;;;;0.90;0.60;;;17.20;1.00;;;;;;5138052;27;20426;-59
2023/07/01 04:33:27;;;;;;;1.52;0.50;;;17.30;1.00;;;;;;5137928;27;20756;-56
2023/07/01 04:35:55;;;;;;;0.90;0.60;;;17.40;1.00;;;;;;5138230;27;20407;-58
2023/07/01 04:38:22;;;;;;;0.90;0.50;;;17.40;1.00;;;;;;5136354;27;20426;-60
2023/07/01 04:40:49;;;;;;;0.90;0.57;;;17.50;1.00;;;;;;5136029;27;20430;-58
2023/07/01 04:43:16;;;;;;;0.70;0.50;;;17.60;1.00;;;;;;5135874;27;20461;-58
2023/07/01 04:45:43;;;;;;;2.10;0.60;;;17.80;1.00;;;;;;5135509;27;20487;-57
2023/07/01 04:48:11;;;;;;;0.90;0.60;;;17.80;1.00;;;;;;5137181;27;20421;-61
2023/07/01 04:50:37;;;;;;;0.82;0.50;;;17.90;1.00;;;;;;5136924;27;20430;-59
2023/07/01 04:53:06;;;;;;;1.00;0.60;;;18.00;1.00;;;;;;5136659;27;20491;-57
2023/07/01 04:55:33;;;;;;;1.48;0.70;;;18.00;1.00;;;;;;5137709;27;20418;-58
2023/07/01 04:58:00;;;;;;;0.80;0.60;;;17.90;1.00;;;;;;5138022;27;20419;-58
2023/07/01 05:00:27;;;;;;;0.82;0.60;;;17.80;1.00;;;;;;5137681;27;20423;-58
2023/07/01 05:02:54;;;;;;;1.00;0.60;;;17.80;1.00;;;;;;5136944;27;20467;-58
2023/07/01 05:05:21;;;;;;;1.00;0.60;;;17.70;1.00;;;;;;5135781;27;20719;-56
2023/07/01 05:07:48;;;;;;;0.80;0.60;;;17.60;1.00;;;;;;5136971;27;20834;-58
2023/07/01 05:10:16;;;;;;;0.90;0.55;;;17.80;1.00;;;;;;5136721;27;20444;-59
2023/07/01 05:12:44;;;;;;;0.80;0.60;;;17.80;1.00;;;;;;5136947;27;20422;-59
2023/07/01 05:15:11;;;;;;;0.90;0.60;;;17.80;1.00;;;;;;5137257;27;20414;-58
2023/07/01 05:17:38;;;;;;;0.90;0.60;;;17.80;1.00;;;;;;5136838;27;20479;-60
2023/07/01 05:20:06;;;;;;;1.60;0.60;;;17.80;1.00;;;;;;5137128;27;20426;-65
2023/07/01 05:22:33;;;;;;;0.90;0.53;;;17.90;1.00;;;;;;5136788;27;20513;-58
2023/07/01 05:25:00;;;;;;;0.90;0.60;;;18.10;1.00;;;;;;5136463;27;20430;-57
2023/07/01 05:27:28;;;;;;;1.00;0.60;;;18.20;1.00;;;;;;5135250;27;20414;-58
2023/07/01 05:29:55;;;;;;;1.10;0.60;;;18.20;1.00;;;;;;5135605;27;20414;-59
2023/07/01 05:32:22;;;;;;;0.98;0.60;;;18.30;1.00;;;;;;5133421;27;20426;-57
2023/07/01 05:34:49;;;;;;;1.30;0.60;;;18.40;1.00;;;;;;5134255;27;20857;-59
2023/07/01 05:37:17;;;;;;;1.02;0.60;;;18.40;1.00;;;;;;5133518;27;20426;-59
2023/07/01 05:39:44;;;;;;;0.85;0.60;;;18.40;1.00;;;;;;5132915;27;20725;-57
2023/07/01 05:42:10;;;;;;;0.80;0.55;;;18.50;99.90;;;;;;5133296;27;20833;-57
2023/07/01 05:44:39;;;;;;;1.10;0.60;;;18.70;99.90;;;;;;5134333;27;20703;-57
2023/07/01 05:47:06;;;;;;;1.60;0.50;;;18.90;99.90;;;;;;5134875;27;20430;-60
2023/07/01 05:49:33;;;;;;;0.98;0.60;;;19.00;20.50;;;;;;5133384;27;20750;-58
2023/07/01 05:52:00;;;;;;;1.00;0.50;;;19.00;1.00;;;;;;5133035;27;20423;-57
2023/07/01 05:54:27;;;;;;;0.70;0.50;;;18.90;1.00;;;;;;5134063;27;20406;-58
2023/07/01 05:56:54;;;;;;;0.88;0.57;;;19.00;1.00;;;;;;5135733;27;20418;-57
2023/07/01 05:59:21;;;;;;;1.60;0.60;;;19.00;1.00;;;;;;5136564;27;20422;-57
2023/07/01 06:01:50;;;;;;;1.60;0.50;;;19.00;1.00;;;;;;5136589;27;20418;-58
2023/07/01 06:04:17;;;;;;;1.00;0.60;;;19.00;99.90;;;;;;5135479;27;20426;-59
2023/07/01 06:06:44;;;;;;;0.80;0.50;;;19.00;43.70;;;;;;5134269;27;20812;-58
2023/07/01 06:09:11;;;;;;;1.00;0.60;;;19.00;99.90;;;;;;5133463;27;20418;-61
2023/07/01 06:11:38;;;;;;;0.90;0.60;;;19.10;99.90;;;;;;5134078;27;20422;-58
2023/07/01 06:14:05;;;;;;;0.90;0.57;;;19.20;1.00;;;;;;5133273;27;20422;-58
2023/07/01 06:16:32;;;;;;;0.80;0.50;;;19.30;1.00;;;;;;5133017;27;20502;-58
2023/07/01 06:19:00;;;;;;;1.50;0.50;;;19.50;99.90;;;;;;5134065;27;20423;-59
2023/07/01 06:21:27;;;;;;;2.30;0.55;;;19.60;1.00;;;;;;5135191;27;20418;-59
2023/07/01 06:23:55;;;;;;;0.87;0.60;;;19.70;1.00;;;;;;5134892;27;20419;-59
2023/07/01 06:26:23;;;;;;;0.80;0.50;;;19.80;1.00;;;;;;5134433;27;20437;-58
2023/07/01 06:28:50;;;;;;;1.08;0.50;;;19.70;1.00;;;;;;5133493;27;20510;-59
2023/07/01 06:31:17;;;;;;;1.60;0.50;;;19.70;1.00;;;;;;5133520;27;20426;-59
2023/07/01 06:33:45;;;;;;;0.90;0.50;;;19.80;1.00;;;;;;5135050;27;20423;-58
2023/07/01 06:36:14;;;;;;;0.80;0.50;;;20.00;1.00;;;;;;5135120;27;20549;-59
2023/07/01 06:38:41;;;;;;;1.20;0.60;;;20.00;99.90;;;;;;5134951;27;20972;-59
2023/07/01 06:41:08;;;;;;;0.70;0.50;;;20.20;99.90;;;;;;5133279;28;20774;-59
2023/07/01 06:43:39;;;;;;;1.40;0.50;;;20.10;1.00;;;;;;5132537;28;20490;-58
2023/07/01 06:46:07;;;;;;;1.00;0.60;;;20.00;1.00;;;;;;5130952;28;20430;-58
2023/07/01 06:48:34;;;;;;;0.70;0.50;;;20.10;1.00;;;;;;5130948;28;20441;-58
2023/07/01 06:51:03;;;;;;;0.90;0.50;;;20.30;1.00;;;;;;5130551;28;20470;-59
2023/07/01 06:53:32;;;;;;;0.70;0.50;;;20.60;1.00;;;;;;5130933;28;20426;-57
2023/07/01 06:55:59;;;;;;;0.80;0.50;;;20.40;99.90;;;;;;5132393;28;20447;-58
2023/07/01 06:58:26;;;;;;;0.70;0.50;;;20.40;1.00;;;;;;5132950;28;20422;-56
2023/07/01 07:00:53;;;;;;;0.60;0.40;;;20.30;99.90;;;;;;5133426;28;20423;-55
2023/07/01 07:03:20;;;;;;;0.60;0.40;;;20.10;99.90;;;;;;5133787;28;20414;-54
2023/07/01 07:05:47;;;;;;;0.80;0.50;;;20.30;99.90;;;;;;5134223;28;21072;-54
2023/07/01 07:08:14;;;;;;;1.70;0.50;;;20.50;99.90;;;;;;5135728;28;20453;-54
2023/07/01 07:10:42;;;;;;;1.00;0.43;;;20.60;99.90;;;;;;5133701;28;20430;-53
2023/07/01 07:13:10;;;;;;;1.40;0.60;;;20.60;99.90;;;;;;5135147;28;20517;-55
2023/07/01 07:15:38;;;;;;;0.60;0.40;;;20.60;99.90;;;;;;5134681;28;20756;-53
2023/07/01 07:18:07;;;;;;;0.80;0.50;;;20.60;99.90;;;;;;5134723;28;20487;-55
2023/07/01 07:20:34;;;;;;;0.70;0.50;;;20.60;99.90;;;;;;5133329;28;20426;-54
2023/07/01 07:23:04;;;;;;;1.40;0.50;;;20.80;99.90;;;;;;5133190;28;20918;-49
2023/07/01 07:25:31;;;;;;;0.90;0.50;;;20.90;99.90;;;;;;5133507;28;20430;-53
2023/07/01 07:27:59;;;;;;;1.30;0.60;;;21.10;99.90;;;;;;5132245;27;20841;-51
2023/07/01 07:30:26;;;;;;;0.90;0.40;;;21.20;24.30;;;;;;5136146;27;20841;-52
2023/07/01 07:32:53;;;;;;;0.80;0.47;;;21.10;10.10;;;;;;5137606;27;20806;-55
2023/07/01 07:35:21;;;;;;;1.10;0.40;;;21.20;1.00;;;;;;5138553;27;20418;-50
2023/07/01 07:37:48;;;;;;;1.67;0.40;;;21.30;1.00;;;;;;5136863;27;20714;-55
2023/07/01 07:40:15;;;;;;;2.00;0.45;;;21.40;1.00;;;;;;5135731;27;20461;-55
2023/07/01 07:42:43;;;;;;;0.82;0.60;;;21.30;1.00;;;;;;5136801;27;20422;-55
2023/07/01 07:45:12;;;;;;;0.60;0.40;;;21.50;1.00;;;;;;5134990;27;20419;-54
2023/07/01 07:47:39;;;;;;;0.73;0.40;;;21.70;1.00;;;;;;5134901;27;20422;-52
2023/07/01 07:50:07;;;;;;;0.70;0.50;;;21.80;1.00;;;;;;5136734;27;20502;-53
2023/07/01 07:52:34;;;;;;;0.70;0.50;;;22.00;1.00;;;;;;5135117;27;20427;-55
2023/07/01 07:55:01;;;;;;;0.80;0.50;;;22.00;1.00;;;;;;5135938;27;20419;-54
2023/07/01 07:57:28;;;;;;;0.70;0.40;;;22.00;1.00;;;;;;5135150;27;20414;-53
2023/07/01 07:59:55;;;;;;;0.73;0.50;;;22.20;1.00;;;;;;5136577;27;20418;-58
2023/07/01 08:02:23;;;;;;;3.10;1.40;;;22.30;1.00;;;;;;5133402;27;20857;-56
2023/07/01 08:04:50;;;;;;;1.50;0.80;;;22.30;1.00;;;;;;5137115;27;20422;-56
2023/07/01 08:07:17;;;;;;;0.90;0.50;;;22.50;1.00;;;;;;5136082;27;20480;-51
2023/07/01 08:09:44;;;;;;;0.80;0.50;;;22.70;1.00;;;;;;5135998;27;20438;-55
2023/07/01 08:12:12;;;;;;;0.63;0.40;;;22.80;1.00;;;;;;5136184;27;20898;-54
2023/07/01 08:14:39;;;;;;;1.20;0.40;;;22.90;1.00;;;;;;5136718;27;20423;-53
2023/07/01 08:17:06;;;;;;;1.17;0.50;;;22.80;1.00;;;;;;5136099;27;20414;-53
2023/07/01 08:19:34;;;;;;;1.00;0.50;;;22.80;1.00;;;;;;5136302;27;20466;-54
2023/07/01 08:22:02;;;;;;;0.67;0.60;;;22.60;1.00;;;;;;5136840;27;20434;-53
2023/07/01 08:24:29;;;;;;;0.80;0.57;;;22.70;1.00;;;;;;5138206;27;20414;-55
2023/07/01 08:26:56;;;;;;;1.30;0.50;;;22.80;1.00;;;;;;5138305;27;20422;-49
2023/07/01 08:29:24;;;;;;;1.60;0.60;;;22.70;1.00;;;;;;5131947;27;20466;-52
2023/07/01 08:31:51;;;;;;;0.70;0.50;;;22.50;1.00;;;;;;5127811;27;20507;-51
2023/07/01 08:34:18;;;;;;;1.80;0.50;;;22.30;1.00;;;;;;5116531;27;20523;-53
2023/07/01 08:36:46;;;;;;;1.40;0.50;;;22.20;1.00;;;;;;5124227;27;20423;-52
2023/07/01 08:39:13;;;;;;;1.70;0.50;;;22.40;1.00;;;;;;5127896;27;20461;-50
2023/07/01 08:41:57;;;;;;;1.30;0.50;;;22.40;1.00;;;;;;5132754;27;20518;-57
2023/07/01 08:44:26;;;;;;;1.30;0.50;;;22.20;1.00;;;;;;5129853;27;21015;-54
2023/07/01 08:46:54;;;;;;;1.23;0.60;;;22.40;1.00;;;;;;5131193;27;20448;-49
2023/07/01 08:49:23;;;;;;;0.82;0.50;;;22.50;1.00;;;;;;5129237;27;20438;-50
2023/07/01 08:51:57;;;;;;;0.90;0.60;;;22.60;1.00;;;;;;5122780;27;20436;-53
2023/07/01 08:54:25;;;;;;;2.20;0.50;;;22.70;1.00;;;;;;5135110;27;20414;-54
2023/07/01 08:56:52;;;;;;;0.70;0.50;;;22.90;1.00;;;;;;5117255;27;20815;-55
2023/07/01 08:59:19;;;;;;;0.60;0.40;;;23.10;1.00;;;;;;5127812;27;20424;-50
2023/07/01 09:01:46;;;;;;;0.90;0.50;;;23.20;1.00;;;;;;5121790;27;20514;-53
2023/07/01 09:04:13;;;;;;;1.45;0.40;;;23.30;1.00;;;;;;5133740;27;20729;-52
2023/07/01 09:06:40;;;;;;;1.10;0.57;;;23.20;1.00;;;;;;5125972;27;20434;-53
2023/07/01 09:09:09;;;;;;;0.70;0.50;;;23.10;1.00;;;;;;5118228;27;20426;-52
2023/07/01 09:11:36;;;;;;;1.25;0.50;;;23.20;1.00;;;;;;5126050;27;20466;-54
2023/07/01 09:14:03;;;;;;;1.20;0.40;;;23.40;1.00;;;;;;5132673;27;20587;-54
2023/07/01 09:16:33;;;;;;;1.30;0.50;;;23.30;1.00;;;;;;5131341;27;20434;-57
2023/07/01 09:19:05;;;;;;;0.60;0.40;;;23.20;1.00;;;;;;5121368;27;20431;-55
2023/07/01 09:21:33;;;;;;;1.92;0.43;;;23.10;1.00;;;;;;5118089;27;20510;-55
2023/07/01 09:24:00;;;;;;;0.60;0.50;;;23.20;1.00;;;;;;5129982;27;21101;-54
2023/07/01 09:26:31;;;;;;;0.70;0.50;;;23.30;1.00;;;;;;5123905;27;20514;-52
2023/07/01 09:28:59;;;;;;;1.10;0.50;;;23.40;1.00;;;;;;5128209;27;20434;-48
2023/07/01 09:31:26;;;;;;;0.70;0.50;;;23.70;1.00;;;;;;5126983;27;20438;-53
2023/07/01 09:34:02;;;;;;;0.70;0.50;;;23.90;1.00;;;;;;5126735;27;20434;-53
2023/07/01 09:36:30;;;;;;;0.60;0.40;;;24.00;1.00;;;;;;5129286;27;20433;-53
2023/07/01 09:38:58;;;;;;;1.00;0.40;;;23.80;1.00;;;;;;5126933;27;20434;-53
2023/07/01 09:41:26;;;;;;;0.70;0.40;;;23.90;1.00;;;;;;5130478;27;21219;-54
2023/07/01 09:43:56;;;;;;;0.70;0.40;;;23.70;1.00;;;;;;5129625;27;20584;-55
2023/07/01 09:46:24;;;;;;;0.80;0.50;;;23.50;1.00;;;;;;5132877;27;20452;-56
2023/07/01 09:48:52;;;;;;;0.70;0.40;;;23.80;1.00;;;;;;5131173;27;20433;-51
2023/07/01 09:51:20;;;;;;;1.60;0.40;;;23.80;1.00;;;;;;5122649;27;20511;-54
2023/07/01 09:53:48;;;;;;;0.80;0.45;;;23.70;1.00;;;;;;5131876;27;20487;-56
2023/07/01 09:56:18;;;;;;;0.80;0.40;;;23.50;1.00;;;;;;5134497;27;20414;-54
2023/07/01 09:58:46;;;;;;;0.90;0.50;;;23.60;1.00;;;;;;5130918;27;20449;-54
2023/07/01 10:01:16;;;;;;;1.40;0.50;;;23.80;1.00;;;;;;5134455;27;20937;-57
2023/07/01 10:03:44;;;;;;;1.20;0.50;;;24.00;1.00;;;;;;5129745;27;20441;-59
2023/07/01 10:06:12;;;;;;;0.70;0.50;;;24.20;1.00;;;;;;5124671;27;20448;-57
2023/07/01 10:08:42;;;;;;;0.80;0.50;;;24.20;1.00;;;;;;5125910;27;20442;-56
2023/07/01 10:11:14;;;;;;;1.08;0.40;;;24.30;1.00;;;;;;5124756;27;20439;-56
2023/07/01 10:13:45;;;;;;;0.90;0.50;;;24.60;1.00;;;;;;5127713;27;20857;-57
2023/07/01 10:16:12;;;;;;;0.93;0.50;;;24.70;1.00;;;;;;5123875;27;20437;-58
2023/07/01 10:18:41;;;;;;;1.30;0.50;;;25.00;1.00;;;;;;5129457;27;20426;-57
2023/07/01 10:21:28;;;;;;;1.10;0.50;;;25.00;1.00;;;;;;5127236;27;20418;-57
2023/07/01 10:23:57;;;;;;;1.00;0.50;;;25.10;1.00;;;;;;5131104;27;20462;-57
2023/07/01 10:26:39;;;;;;;0.70;0.40;;;25.10;1.00;;;;;;5122341;27;20491;-56
2023/07/01 10:29:40;;;;;;;0.70;0.40;;;25.20;1.00;;;;;;5130864;28;20433;-57
2023/07/01 10:32:30;;;;;;;0.68;0.40;;;25.70;1.00;;;;;;5127781;27;20479;-55
2023/07/01 10:35:14;;;;;;;1.35;0.40;;;25.80;1.00;;;;;;5129886;27;20783;-53
2023/07/01 10:37:41;;;;;;;1.50;0.40;;;26.20;1.00;;;;;;5125669;27;20885;-54
2023/07/01 10:40:43;;;;;;;1.00;0.50;;;26.00;1.00;;;;;;5130441;27;20434;-53
2023/07/01 10:43:27;;;;;;;0.90;0.50;;;26.30;1.00;;;;;;5121258;28;20426;-53
2023/07/01 10:46:08;;;;;;;2.50;0.40;;;25.70;1.00;;;;;;5131276;28;20516;-53
2023/07/01 10:48:36;;;;;;;0.70;0.40;;;25.60;1.00;;;;;;5130238;28;20427;-53
2023/07/01 10:51:06;;;;;;;0.80;0.60;;;25.50;1.00;;;;;;5127101;28;20433;-53
2023/07/01 10:53:54;;;;;;;1.00;0.60;;;25.50;1.00;;;;;;5133500;28;20487;-52
2023/07/01 10:56:22;;;;;;;0.70;0.50;;;25.40;1.00;;;;;;5132206;28;20419;-53
2023/07/01 10:59:20;;;;;;;0.80;0.50;;;25.50;1.00;;;;;;5129264;28;20426;-52
2023/07/01 11:01:48;;;;;;;1.80;0.40;;;25.80;1.00;;;;;;5134796;28;20441;-51
2023/07/01 11:04:15;;;;;;;1.00;0.50;;;26.10;1.00;;;;;;5136313;27;20487;-49
2023/07/01 11:06:52;;;;;;;0.80;0.50;;;26.10;1.00;;;;;;5139174;27;20430;-55
2023/07/01 11:09:28;;;;;;;0.70;0.40;;;25.90;1.00;;;;;;5131322;27;20731;-51
2023/07/01 11:11:56;;;;;;;0.80;0.50;;;25.80;1.00;;;;;;5129109;27;20497;-53
2023/07/01 11:14:31;;;;;;;0.70;0.50;;;25.70;1.00;;;;;;5128646;27;20434;-49
2023/07/01 11:17:07;;;;;;;1.25;0.50;;;25.60;1.00;;;;;;5136069;27;20516;-51
2023/07/01 11:19:37;;;;;;;0.70;0.50;;;26.00;1.00;;;;;;5116774;28;20874;-49
2023/07/01 11:22:05;;;;;;;0.80;0.50;;;26.20;1.00;;;;;;5123995;27;20438;-49
2023/07/01 11:24:34;;;;;;;0.90;0.50;;;26.40;1.00;;;;;;5136264;27;20483;-51
2023/07/01 11:27:03;;;;;;;0.80;0.50;;;26.40;1.00;;;;;;5131712;27;20522;-51
2023/07/01 11:29:31;;;;;;;0.90;0.40;;;26.00;1.00;;;;;;5129987;27;20438;-48
2023/07/01 11:31:59;;;;;;;0.80;0.50;;;26.00;1.00;;;;;;5127855;27;20446;-54
2023/07/01 11:34:27;;;;;;;2.40;0.60;;;26.00;1.00;;;;;;5118934;27;20527;-54
2023/07/01 11:36:54;;;;;;;0.80;0.50;;;26.00;1.00;;;;;;5127812;27;20462;-52
2023/07/01 11:39:23;;;;;;;0.90;0.60;;;26.20;1.00;;;;;;5136155;27;20423;-56
2023/07/01 11:41:52;;;;;;;0.80;0.50;;;26.30;1.00;;;;;;5132181;27;20430;-49
2023/07/01 11:44:21;;;;;;;1.00;0.50;;;26.40;1.00;;;;;;5126165;27;20426;-51
2023/07/01 11:46:48;;;;;;;0.80;0.50;;;26.80;1.00;;;;;;5132127;27;20430;-54
2023/07/01 11:49:17;;;;;;;0.80;0.43;;;26.90;1.00;;;;;;5137389;27;20426;-55
2023/07/01 11:51:46;;;;;;;0.80;0.50;;;26.80;1.00;;;;;;5137974;27;20429;-56
2023/07/01 11:54:14;;;;;;;1.20;0.50;;;26.70;1.00;;;;;;5136761;27;20968;-53
2023/07/01 11:56:43;;;;;;;0.80;0.57;;;26.70;1.00;;;;;;5137684;27;20908;-51
2023/07/01 11:59:10;;;;;;;1.10;0.50;;;26.40;1.00;;;;;;5137059;27;20434;-54
2023/07/01 12:01:38;;;;;;;1.45;0.60;;;26.30;1.00;;;;;;5136277;27;20445;-52
2023/07/01 12:04:16;;;;;;;0.60;0.47;;;25.90;1.00;;;;;;5136184;27;20850;-49
2023/07/01 12:06:43;;;;;;;0.80;0.50;;;25.80;1.00;;;;;;5135144;27;20456;-51
2023/07/01 12:09:10;;;;;;;0.73;0.50;;;25.70;1.00;;;;;;5134971;27;20426;-50
2023/07/01 12:11:48;;;;;;;1.30;0.50;;;25.80;1.00;;;;;;5135913;27;20471;-50
2023/07/01 12:14:19;;;;;;;0.90;0.50;;;25.60;1.00;;;;;;5136337;27;20533;-49
2023/07/01 12:16:49;;;;;;;1.00;0.50;;;25.30;1.00;;;;;;5135759;27;20422;-49
2023/07/01 12:19:16;;;;;;;0.80;0.43;;;25.30;1.00;;;;;;5135299;27;20461;-49
2023/07/01 12:21:44;;;;;;;0.80;0.50;;;25.10;1.00;;;;;;5134331;27;20438;-50
2023/07/01 12:24:18;;;;;;;1.40;0.50;;;24.80;1.00;;;;;;5135134;27;20420;-51
2023/07/01 12:26:46;;;;;;;0.70;0.40;;;24.60;1.00;;;;;;5133803;27;20433;-52
2023/07/01 12:29:14;;;;;;;1.40;0.50;;;24.50;1.00;;;;;;5132729;27;20438;-48
2023/07/01 12:31:41;;;;;;;0.80;0.40;;;24.30;1.00;;;;;;5134789;27;20867;-48
2023/07/01 12:34:08;;;;;;;2.40;0.50;;;24.30;1.00;;;;;;5132824;27;20487;-51
2023/07/01 12:36:36;;;;;;;1.40;0.50;;;24.20;1.00;;;;;;5134381;27;20800;-47
2023/07/01 12:39:04;;;;;;;0.90;0.50;;;24.20;1.00;;;;;;5132738;27;20922;-52
2023/07/01 12:41:31;;;;;;;0.60;0.40;;;24.20;1.00;;;;;;5135482;27;20426;-53
2023/07/01 12:44:00;;;;;;;0.90;0.50;;;24.30;1.00;;;;;;5134854;27;20849;-51
2023/07/01 12:46:27;;;;;;;0.70;0.40;;;24.20;1.00;;;;;;5135628;27;20463;-49
2023/07/01 12:48:54;;;;;;;3.10;2.00;;;24.20;1.00;;;;;;5136158;27;20640;-51
2023/07/01 12:51:20;;;;;;;0.60;0.40;;;24.40;1.00;;;;;;5136703;27;20611;-53
2023/07/01 12:53:48;;;;;;;0.60;0.40;;;24.00;1.00;;;;;;5133784;27;20476;-54
2023/07/01 12:56:15;;;;;;;0.73;0.40;;;23.90;1.00;;;;;;5134398;27;20430;-49
2023/07/01 12:58:42;;;;;;;0.60;0.40;;;24.20;1.00;;;;;;5136758;27;20427;-53
2023/07/01 13:01:10;;;;;;;0.60;0.40;;;24.40;1.00;;;;;;5135333;27;20475;-49
2023/07/01 13:03:41;;;;;;;0.80;0.40;;;24.60;1.00;;;;;;5135037;27;20419;-48